createdAt,value
2023-12-09T00:00:39.592Z,100892.41
2023-12-09T00:03:08.431Z,100894.13
2023-12-09T00:05:35.908Z,100904.44
2023-12-09T00:08:02.552Z,100900.03
2023-12-09T00:10:29.223Z,100892.66
2023-12-09T00:12:56.151Z,100889.28
2023-12-09T00:15:22.817Z,100891.00
2023-12-09T00:17:50.352Z,100888.66
2023-12-09T00:20:16.878Z,100893.19
2023-12-09T00:22:43.384Z,100888.72
2023-12-09T00:25:10.534Z,100890.16
2023-12-09T00:27:37.028Z,100891.88
2023-12-09T00:30:03.844Z,100886.72
2023-12-09T00:32:30.825Z,100896.72
2023-12-09T00:34:57.742Z,100897.44
2023-12-09T00:37:24.227Z,100895.72
2023-12-09T00:39:51.036Z,100890.53
2023-12-09T00:42:17.711Z,100894.78
2023-12-09T00:44:44.367Z,100893.59
2023-12-09T00:47:10.917Z,100907.88
2023-12-09T00:49:37.591Z,100904.28
2023-12-09T00:52:04.422Z,100894.34
2023-12-09T00:54:31.004Z,100899.88
2023-12-09T00:56:57.636Z,100903.53
2023-12-09T00:59:24.164Z,100908.00
2023-12-09T01:01:50.723Z,100908.66
2023-12-09T01:04:17.419Z,100909.38
2023-12-09T01:06:44.177Z,100909.00
2023-12-09T01:09:10.794Z,100913.75
2023-12-09T01:11:37.378Z,100910.72
2023-12-09T01:14:03.875Z,100917.63
2023-12-09T01:16:31.258Z,100916.03
2023-12-09T01:18:58.065Z,100923.41
2023-12-09T01:21:24.671Z,100922.16
2023-12-09T01:23:51.267Z,100920.16
2023-12-09T01:26:17.827Z,100914.97
2023-12-09T01:28:45.197Z,100915.25
2023-12-09T01:31:11.747Z,100915.75
2023-12-09T01:33:39.288Z,100924.84
2023-12-09T01:36:06.143Z,100910.81
2023-12-09T01:38:32.753Z,100923.09
2023-12-09T01:40:59.264Z,100921.84
2023-12-09T01:43:26.571Z,100922.41
2023-12-09T01:45:55.830Z,100911.66
2023-12-09T01:48:23.617Z,100908.19
2023-12-09T01:50:50.733Z,100912.06
2023-12-09T01:53:17.542Z,100907.72
2023-12-09T01:55:44.129Z,100911.97
2023-12-09T01:58:11.826Z,100910.31
2023-12-09T02:00:40.831Z,100901.88
2023-12-09T02:03:07.656Z,100899.41
2023-12-09T02:09:21.299Z,100905.47
2023-12-09T02:12:14.541Z,100902.72
2023-12-09T02:14:56.133Z,100898.88
2023-12-09T02:17:48.800Z,100895.34
2023-12-09T02:20:15.594Z,100898.97
2023-12-09T02:22:42.181Z,100915.22
2023-12-09T02:25:09.253Z,100903.88
2023-12-09T02:27:58.857Z,100905.63
2023-12-09T02:30:42.230Z,100902.00
2023-12-09T02:33:11.364Z,100912.69
2023-12-09T02:35:41.381Z,100908.28
2023-12-09T02:38:10.185Z,100909.50
2023-12-09T02:40:37.670Z,100917.09
2023-12-09T02:43:05.104Z,100913.63
2023-12-09T02:45:31.741Z,100906.41
2023-12-09T02:47:58.704Z,100903.13
2023-12-09T02:50:25.276Z,100902.97
2023-12-09T02:52:51.800Z,100895.75
2023-12-09T02:55:18.699Z,100892.50
2023-12-09T02:57:45.287Z,100894.84
2023-12-09T03:00:12.415Z,100896.97
2023-12-09T03:02:39.094Z,100894.41
2023-12-09T03:05:05.887Z,100892.19
2023-12-09T03:07:32.542Z,100892.13
2023-12-09T03:09:59.084Z,100893.09
2023-12-09T03:12:25.856Z,100892.19
2023-12-09T03:14:54.101Z,100899.38
2023-12-09T03:17:20.693Z,100899.66
2023-12-09T03:19:47.347Z,100891.66
2023-12-09T03:22:13.909Z,100900.22
2023-12-09T03:24:43.672Z,100907.50
2023-12-09T03:27:10.235Z,100905.56
2023-12-09T03:29:37.525Z,100907.81
2023-12-09T03:32:04.256Z,100903.75
2023-12-09T03:34:31.078Z,100906.31
2023-12-09T03:36:57.740Z,100901.25
2023-12-09T03:39:24.411Z,100898.31
2023-12-09T03:41:51.134Z,100900.19
2023-12-09T03:44:17.834Z,100897.63
2023-12-09T03:46:44.361Z,100892.44
2023-12-09T03:49:11.051Z,100896.03
2023-12-09T03:51:37.652Z,100897.72
2023-12-09T03:54:05.171Z,100900.31
2023-12-09T03:56:32.105Z,100898.50
2023-12-09T03:58:58.610Z,100900.19
2023-12-09T04:01:25.965Z,100905.56
2023-12-09T04:03:53.122Z,100908.19
2023-12-09T04:06:19.835Z,100904.84
2023-12-09T04:08:46.359Z,100912.69
2023-12-09T04:11:12.931Z,100914.41
2023-12-09T04:13:41.516Z,100909.78
2023-12-09T04:16:08.480Z,100913.47
2023-12-09T04:18:35.605Z,100910.88
2023-12-09T04:21:02.290Z,100908.06
2023-12-09T04:23:28.866Z,100909.00
2023-12-09T04:25:55.428Z,100914.41
2023-12-09T04:28:22.016Z,100916.13
2023-12-09T04:30:48.532Z,100910.66
2023-12-09T04:33:15.124Z,100907.91
2023-12-09T04:35:41.771Z,100902.50
2023-12-09T04:38:08.476Z,100908.84
2023-12-09T04:40:35.066Z,100909.53
2023-12-09T04:43:01.590Z,100914.88
2023-12-09T04:45:28.121Z,100914.00
2023-12-09T04:47:54.858Z,100909.53
2023-12-09T04:50:22.087Z,100904.06
2023-12-09T04:52:48.595Z,100903.38
2023-12-09T04:55:15.261Z,100907.81
2023-12-09T04:57:44.166Z,100901.00
2023-12-09T05:00:12.776Z,100903.59
2023-12-09T05:02:39.448Z,100900.84
2023-12-09T05:05:06.366Z,100901.47
2023-12-09T05:07:33.962Z,100894.63
2023-12-09T05:10:00.483Z,100890.16
2023-12-09T05:12:28.116Z,100900.59
2023-12-09T05:14:54.932Z,100898.56
2023-12-09T05:17:21.424Z,100895.97
2023-12-09T05:19:48.320Z,100896.13
2023-12-09T05:22:16.029Z,100885.53
2023-12-09T05:24:43.275Z,100881.13
2023-12-09T05:27:09.872Z,100877.63
2023-12-09T05:29:36.426Z,100882.84
2023-12-09T05:32:04.120Z,100875.78
2023-12-09T05:34:30.753Z,100870.31
2023-12-09T05:36:57.274Z,100868.69
2023-12-09T05:39:23.843Z,100864.03
2023-12-09T05:41:50.571Z,100857.75
2023-12-09T05:44:17.085Z,100862.81
2023-12-09T05:46:43.583Z,100860.22
2023-12-09T05:49:10.596Z,100854.94
2023-12-09T05:51:38.135Z,100854.03
2023-12-09T05:54:04.830Z,100846.81
2023-12-09T05:56:31.465Z,100848.72
2023-12-09T05:58:58.015Z,100861.22
2023-12-09T06:01:24.550Z,100859.22
2023-12-09T06:03:51.104Z,100853.72
2023-12-09T06:06:17.918Z,100855.47
2023-12-09T06:08:44.753Z,100851.94
2023-12-09T06:11:11.698Z,100846.53
2023-12-09T06:13:39.058Z,100847.47
2023-12-09T06:16:05.757Z,100842.13
2023-12-09T06:18:33.418Z,100847.19
2023-12-09T06:21:00.012Z,100845.47
2023-12-09T06:23:27.577Z,100840.91
2023-12-09T06:25:54.185Z,100841.69
2023-12-09T06:28:20.691Z,100840.75
2023-12-09T06:30:47.351Z,100848.78
2023-12-09T06:33:14.170Z,100852.25
2023-12-09T06:35:40.740Z,100847.84
2023-12-09T06:38:07.250Z,100844.09
2023-12-09T06:40:33.829Z,100851.19
2023-12-09T06:43:00.366Z,100847.56
2023-12-09T06:45:27.295Z,100840.34
2023-12-09T06:47:55.248Z,100864.25
2023-12-09T06:50:22.460Z,100870.22
2023-12-09T06:52:49.061Z,100869.09
2023-12-09T06:55:15.642Z,100876.31
2023-12-09T06:57:42.841Z,100872.63
2023-12-09T07:00:09.886Z,100874.38
2023-12-09T07:02:45.040Z,100883.97
2023-12-09T07:05:20.054Z,100868.88
2023-12-09T07:07:46.862Z,100878.91
2023-12-09T07:10:13.351Z,100873.28
2023-12-09T07:12:39.887Z,100859.13
2023-12-09T07:15:07.784Z,100864.78
2023-12-09T07:17:34.386Z,100860.34
2023-12-09T07:20:01.007Z,100864.69
2023-12-09T07:22:27.839Z,100868.16
2023-12-09T07:24:54.566Z,100868.22
2023-12-09T07:27:21.112Z,100866.34
2023-12-09T07:29:47.665Z,100866.50
2023-12-09T07:32:15.097Z,100868.22
2023-12-09T07:34:41.717Z,100866.44
2023-12-09T07:37:11.125Z,100862.59
2023-12-09T07:39:43.718Z,100870.47
2023-12-09T07:42:11.455Z,100873.16
2023-12-09T07:44:38.047Z,100872.06
2023-12-09T07:47:05.352Z,100868.38
2023-12-09T07:49:32.232Z,100854.91
2023-12-09T07:51:58.927Z,100860.25
2023-12-09T07:54:25.568Z,100861.88
2023-12-09T07:56:52.152Z,100864.38
2023-12-09T07:59:18.679Z,100868.59
2023-12-09T08:01:45.743Z,100867.66
2023-12-09T08:04:13.821Z,100870.63
2023-12-09T08:06:40.666Z,100868.25
2023-12-09T08:09:08.391Z,100860.88
2023-12-09T08:11:35.979Z,100855.41
2023-12-09T08:14:02.645Z,100857.13
2023-12-09T08:16:29.215Z,100856.09
2023-12-09T08:18:55.925Z,100858.25
2023-12-09T08:21:22.664Z,100862.81
2023-12-09T08:23:49.260Z,100875.03
2023-12-09T08:26:19.403Z,100869.16
2023-12-09T08:28:46.716Z,100874.59
2023-12-09T08:31:13.629Z,100870.19
2023-12-09T08:33:41.218Z,100861.13
2023-12-09T08:36:08.449Z,100847.28
2023-12-09T08:38:35.445Z,100858.53
2023-12-09T08:41:02.314Z,100859.41
2023-12-09T08:43:28.976Z,100850.84
2023-12-09T08:45:55.647Z,100862.25
2023-12-09T08:48:22.374Z,100862.66
2023-12-09T08:50:49.065Z,100849.38
2023-12-09T08:53:15.623Z,100848.34
2023-12-09T08:55:42.384Z,100842.00
2023-12-09T08:58:09.097Z,100850.63
2023-12-09T09:00:35.628Z,100837.59
2023-12-09T09:03:04.549Z,100841.03
2023-12-09T09:05:31.281Z,100833.97
2023-12-09T09:07:58.634Z,100834.41
2023-12-09T09:10:25.225Z,100834.97
2023-12-09T09:12:51.764Z,100834.41
2023-12-09T09:15:18.612Z,100828.06
2023-12-09T09:17:45.241Z,100824.53
2023-12-09T09:20:12.000Z,100824.19
2023-12-09T09:22:39.008Z,100829.41
2023-12-09T09:25:06.162Z,100826.88
2023-12-09T09:27:33.028Z,100821.22
2023-12-09T09:29:59.876Z,100823.25
2023-12-09T09:32:26.778Z,100832.38
2023-12-09T09:34:53.769Z,100837.75
2023-12-09T09:37:21.275Z,100831.28
2023-12-09T09:39:48.483Z,100832.47
2023-12-09T09:42:21.117Z,100828.75
2023-12-09T09:45:11.392Z,100830.66
2023-12-09T09:47:38.464Z,100830.34
2023-12-09T09:50:09.685Z,100833.09
2023-12-09T09:52:37.930Z,100827.34
2023-12-09T09:55:07.644Z,100829.03
2023-12-09T09:57:35.374Z,100822.78
2023-12-09T10:00:02.408Z,100818.69
2023-12-09T10:02:29.718Z,100815.22
2023-12-09T10:04:56.449Z,100804.50
2023-12-09T10:07:23.746Z,100809.06
2023-12-09T10:09:51.039Z,100800.41
2023-12-09T10:12:17.627Z,100799.47
2023-12-09T10:14:44.396Z,100784.44
2023-12-09T10:17:12.297Z,100786.97
2023-12-09T10:19:39.867Z,100781.19
2023-12-09T10:22:06.455Z,100775.81
2023-12-09T10:24:33.114Z,100782.66
2023-12-09T10:27:01.195Z,100770.47
2023-12-09T10:29:27.767Z,100770.56
2023-12-09T10:31:54.367Z,100770.06
2023-12-09T10:34:21.619Z,100770.91
2023-12-09T10:36:48.347Z,100759.34
2023-12-09T10:39:14.969Z,100761.50
2023-12-09T10:41:46.719Z,100753.41
2023-12-09T10:44:13.237Z,100747.19
2023-12-09T10:46:39.932Z,100744.00
2023-12-09T10:49:06.593Z,100738.19
2023-12-09T10:51:33.406Z,100733.03
2023-12-09T10:54:00.152Z,100730.06
2023-12-09T10:56:27.743Z,100728.00
2023-12-09T10:58:56.904Z,100712.75
2023-12-09T11:01:24.020Z,100713.06
2023-12-09T11:03:50.710Z,100712.03
2023-12-09T11:06:21.217Z,100705.03
2023-12-09T11:08:48.426Z,100703.56
2023-12-09T11:11:17.812Z,100709.59
2023-12-09T11:13:47.354Z,100705.06
2023-12-09T11:16:22.150Z,100694.16
2023-12-09T11:18:54.308Z,100694.94
2023-12-09T11:21:23.436Z,100684.84
2023-12-09T11:23:54.721Z,100671.97
2023-12-09T11:26:32.157Z,100674.38
2023-12-09T11:29:11.553Z,100678.59
2023-12-09T11:31:40.150Z,100673.31
2023-12-09T11:34:08.704Z,100671.25
2023-12-09T11:36:37.939Z,100666.34
2023-12-09T11:39:10.081Z,100664.50
2023-12-09T11:41:41.536Z,100654.66
2023-12-09T11:44:10.008Z,100659.56
2023-12-09T11:46:37.264Z,100654.53
2023-12-09T11:49:05.319Z,100654.97
2023-12-09T11:51:34.871Z,100645.41
2023-12-09T11:54:03.485Z,100639.22
2023-12-09T11:56:31.050Z,100634.72
2023-12-09T11:58:58.287Z,100619.69
2023-12-09T12:01:26.325Z,100614.25
2023-12-09T12:03:53.696Z,100599.59
2023-12-09T12:06:23.245Z,100599.59
2023-12-09T12:08:51.950Z,100596.16
2023-12-09T12:11:23.136Z,100595.78
2023-12-09T12:13:51.157Z,100598.88
2023-12-09T12:16:17.957Z,100585.56
2023-12-09T12:18:46.161Z,100591.78
2023-12-09T12:21:12.946Z,100587.84
2023-12-09T12:23:42.527Z,100576.38
2023-12-09T12:26:14.778Z,100586.91
2023-12-09T12:28:41.656Z,100577.91
2023-12-09T12:31:11.881Z,100586.72
2023-12-09T12:33:38.571Z,100577.72
2023-12-09T12:36:06.268Z,100574.09
2023-12-09T12:38:33.569Z,100574.38
2023-12-09T12:41:00.208Z,100571.31
2023-12-09T12:43:32.042Z,100572.16
2023-12-09T12:46:00.018Z,100569.09
2023-12-09T12:48:27.225Z,100554.91
2023-12-09T12:50:54.571Z,100546.28
2023-12-09T12:53:24.341Z,100532.97
2023-12-09T12:55:52.905Z,100522.09
2023-12-09T12:58:19.665Z,100511.44
2023-12-09T13:00:51.034Z,100517.38
2023-12-09T13:03:18.107Z,100518.91
2023-12-09T13:05:44.903Z,100516.81
2023-12-09T13:08:11.732Z,100518.16
2023-12-09T13:10:38.421Z,100509.66
2023-12-09T13:13:06.921Z,100510.00
2023-12-09T13:15:34.440Z,100499.75
2023-12-09T13:18:02.873Z,100496.47
2023-12-09T13:20:30.243Z,100488.72
2023-12-09T13:22:57.238Z,100485.53
2023-12-09T13:25:23.931Z,100494.53
2023-12-09T13:27:50.691Z,100472.03
2023-12-09T13:30:17.381Z,100467.63
2023-12-09T13:32:45.495Z,100468.56
2023-12-09T13:35:12.192Z,100468.28
2023-12-09T13:37:39.487Z,100463.88
2023-12-09T13:40:08.378Z,100459.75
2023-12-09T13:42:35.374Z,100462.16
2023-12-09T13:45:02.224Z,100456.44
2023-12-09T13:47:28.872Z,100451.34
2023-12-09T13:49:56.380Z,100456.72
2023-12-09T13:52:23.880Z,100466.69
2023-12-09T13:54:52.097Z,100463.34
2023-12-09T13:57:18.738Z,100463.72
2023-12-09T13:59:45.304Z,100459.13
2023-12-09T14:02:12.732Z,100455.84
2023-12-09T14:04:39.580Z,100451.63
2023-12-09T14:07:06.169Z,100449.88
2023-12-09T14:09:32.768Z,100457.28
2023-12-09T14:12:01.863Z,100459.97
2023-12-09T14:14:30.625Z,100446.47
2023-12-09T14:16:57.202Z,100429.28
2023-12-09T14:19:25.532Z,100420.00
2023-12-09T14:21:52.482Z,100421.28
2023-12-09T14:24:19.414Z,100424.25
2023-12-09T14:26:46.261Z,100415.44
2023-12-09T14:29:12.865Z,100408.59
2023-12-09T14:31:39.881Z,100409.72
2023-12-09T14:34:07.298Z,100403.38
2023-12-09T14:36:34.899Z,100403.59
2023-12-09T14:39:01.916Z,100391.38
2023-12-09T14:41:28.528Z,100383.88
2023-12-09T14:43:59.786Z,100380.44
2023-12-09T14:46:32.475Z,100360.69
2023-12-09T14:48:59.205Z,100352.97
2023-12-09T14:53:55.272Z,100342.63
2023-12-09T14:56:22.039Z,100335.81
2023-12-09T14:58:48.813Z,100329.72
2023-12-09T15:01:15.467Z,100329.06
2023-12-09T15:03:42.758Z,100330.19
2023-12-09T15:06:09.656Z,100327.72
2023-12-09T15:08:36.422Z,100325.31
2023-12-09T15:11:03.244Z,100323.81
2023-12-09T15:13:30.029Z,100320.56
2023-12-09T15:15:56.709Z,100320.00
2023-12-09T15:18:23.386Z,100320.38
2023-12-09T15:20:52.216Z,100314.28
2023-12-09T15:23:18.884Z,100308.25
2023-12-09T15:25:46.009Z,100304.16
2023-12-09T15:28:13.044Z,100309.03
2023-12-09T15:30:40.615Z,100306.66
2023-12-09T15:33:07.317Z,100308.56
2023-12-09T15:35:35.592Z,100298.88
2023-12-09T15:38:03.356Z,100289.22
2023-12-09T15:40:29.883Z,100298.44
2023-12-09T15:42:56.495Z,100285.97
2023-12-09T15:45:23.127Z,100282.75
2023-12-09T15:47:49.811Z,100278.44
2023-12-09T15:50:16.431Z,100274.13
2023-12-09T15:52:43.615Z,100268.97
2023-12-09T15:55:10.468Z,100263.81
2023-12-09T15:57:37.986Z,100251.56
2023-12-09T16:00:06.332Z,100248.31
2023-12-09T16:02:33.760Z,100245.25
2023-12-09T16:05:00.425Z,100247.19
2023-12-09T16:07:27.190Z,100249.06
2023-12-09T16:09:58.027Z,100244.78
2023-12-09T16:12:26.096Z,100237.03
2023-12-09T16:14:55.163Z,100240.56
2023-12-09T16:17:22.244Z,100241.69
2023-12-09T16:19:49.059Z,100235.50
2023-12-09T16:22:18.781Z,100229.38
2023-12-09T16:24:47.347Z,100217.91
2023-12-09T16:27:15.499Z,100211.88
2023-12-09T16:29:42.073Z,100214.84
2023-12-09T16:32:11.477Z,100219.16
2023-12-09T16:34:39.073Z,100214.66
2023-12-09T16:37:05.746Z,100201.19
2023-12-09T16:39:32.492Z,100188.59
2023-12-09T16:41:59.325Z,100184.84
2023-12-09T16:44:26.006Z,100170.53
2023-12-09T16:46:52.999Z,100164.00
2023-12-09T16:49:19.751Z,100157.78
2023-12-09T16:51:46.549Z,100136.22
2023-12-09T16:54:13.303Z,100143.38
2023-12-09T16:56:40.030Z,100158.75
2023-12-09T16:59:12.072Z,100145.28
2023-12-09T17:01:39.363Z,100139.00
2023-12-09T17:04:06.735Z,100132.69
2023-12-09T17:06:34.131Z,100121.88
2023-12-09T17:09:01.087Z,100114.50
2023-12-09T17:11:28.098Z,100113.16
2023-12-09T17:13:54.901Z,100118.94
2023-12-09T17:16:21.585Z,100120.91
2023-12-09T17:18:48.533Z,100118.34
2023-12-09T17:21:15.222Z,100130.00
2023-12-09T17:23:42.167Z,100129.25
2023-12-09T17:26:08.823Z,100107.84
2023-12-09T17:28:35.472Z,100091.78
2023-12-09T17:31:02.346Z,100089.50
2023-12-09T17:33:29.080Z,100096.78
2023-12-09T17:35:56.105Z,100099.66
2023-12-09T17:38:22.749Z,100093.72
2023-12-09T17:40:49.344Z,100082.25
2023-12-09T17:43:16.069Z,100080.53
2023-12-09T17:45:42.708Z,100064.88
2023-12-09T17:48:09.417Z,100055.72
2023-12-09T17:50:36.117Z,100051.59
2023-12-09T17:53:02.676Z,100046.56
2023-12-09T17:55:29.675Z,100023.63
2023-12-09T17:57:58.245Z,100020.47
2023-12-09T18:00:24.972Z,100012.28
2023-12-09T18:02:51.606Z,100001.00
2023-12-09T18:05:19.035Z,100002.06
2023-12-09T18:07:45.601Z,99987.09
2023-12-09T18:10:13.427Z,99981.06
2023-12-09T18:12:41.063Z,99972.28
2023-12-09T18:15:08.259Z,99977.63
2023-12-09T18:17:35.152Z,99983.19
2023-12-09T18:20:02.638Z,99988.69
2023-12-09T18:22:29.358Z,99984.22
2023-12-09T18:24:56.147Z,99982.50
2023-12-09T18:27:23.004Z,99970.94
2023-12-09T18:29:49.791Z,99969.81
2023-12-09T18:32:17.782Z,99956.81
2023-12-09T18:34:44.639Z,99945.28
2023-12-09T18:37:12.641Z,99948.22
2023-12-09T18:39:39.724Z,99959.72
2023-12-09T18:42:06.781Z,99947.47
2023-12-09T18:44:33.440Z,99945.00
2023-12-09T18:47:00.068Z,99920.22
2023-12-09T18:49:26.690Z,99911.41
2023-12-09T18:51:53.718Z,99905.78
2023-12-09T18:54:20.307Z,99906.06
2023-12-09T18:56:47.114Z,99902.53
2023-12-09T18:59:16.124Z,99897.88
2023-12-09T19:01:44.023Z,99899.78
2023-12-09T19:04:11.155Z,99898.94
2023-12-09T19:06:45.785Z,99900.84
2023-12-09T19:09:20.533Z,99891.22
2023-12-09T19:11:47.266Z,99881.41
2023-12-09T19:14:13.860Z,99882.25
2023-12-09T19:16:41.559Z,99866.22
2023-12-09T19:19:08.375Z,99857.63
2023-12-09T19:21:39.213Z,99853.03
2023-12-09T19:24:06.396Z,99854.41
2023-12-09T19:26:34.383Z,99849.81
2023-12-09T19:29:02.699Z,99840.75
2023-12-09T19:31:29.666Z,99852.78
2023-12-09T19:33:56.470Z,99851.81
2023-12-09T19:36:23.211Z,99857.56
2023-12-09T19:38:50.603Z,99856.88
2023-12-09T19:41:17.164Z,99852.59
2023-12-09T19:43:44.103Z,99842.78
2023-12-09T19:46:10.708Z,99831.34
2023-12-09T19:48:39.464Z,99813.50
2023-12-09T19:51:06.438Z,99805.38
2023-12-09T19:53:33.095Z,99803.84
2023-12-09T19:55:59.900Z,99805.97
2023-12-09T19:58:26.540Z,99797.28
2023-12-09T20:00:53.291Z,99802.63
2023-12-09T20:03:20.382Z,99797.47
2023-12-09T20:05:47.035Z,99792.91
2023-12-09T20:08:14.434Z,99790.91
2023-12-09T20:10:42.448Z,99788.25
2023-12-09T20:13:09.166Z,99789.66
2023-12-09T20:15:35.826Z,99784.19
2023-12-09T20:18:02.549Z,99777.25
2023-12-09T20:20:30.372Z,99768.50
2023-12-09T20:22:59.924Z,99757.72
2023-12-09T20:25:26.535Z,99755.91
2023-12-09T20:27:53.407Z,99750.75
2023-12-09T20:30:20.277Z,99746.06
2023-12-09T20:32:47.482Z,99727.47
2023-12-09T20:35:14.959Z,99735.03
2023-12-09T20:37:41.898Z,99743.50
2023-12-09T20:40:08.966Z,99748.00
2023-12-09T20:42:35.928Z,99752.38
2023-12-09T20:45:04.930Z,99743.13
2023-12-09T20:47:31.503Z,99745.84
2023-12-09T20:49:58.147Z,99747.78
2023-12-09T20:52:25.002Z,99744.34
2023-12-09T20:54:51.741Z,99737.94
2023-12-09T20:57:18.435Z,99731.00
2023-12-09T20:59:47.480Z,99730.25
2023-12-09T21:02:14.058Z,99733.88
2023-12-09T21:04:45.226Z,99730.34
2023-12-09T21:07:12.089Z,99722.25
2023-12-09T21:09:41.361Z,99717.88
2023-12-09T21:12:09.167Z,99712.09
2023-12-09T21:14:35.827Z,99711.16
2023-12-09T21:17:02.581Z,99708.47
2023-12-09T21:19:32.208Z,99702.22
2023-12-09T21:21:58.912Z,99697.53
2023-12-09T21:24:25.506Z,99702.38
2023-12-09T21:26:53.264Z,99690.09
2023-12-09T21:29:20.885Z,99695.00
2023-12-09T21:31:47.514Z,99680.56
2023-12-09T21:34:14.674Z,99682.53
2023-12-09T21:36:41.774Z,99681.84
2023-12-09T21:39:09.983Z,99681.34
2023-12-09T21:41:36.728Z,99686.94
2023-12-09T21:44:03.474Z,99669.88
2023-12-09T21:46:30.708Z,99666.69
2023-12-09T21:48:57.949Z,99668.00
2023-12-09T21:51:24.884Z,99658.56
2023-12-09T21:53:51.670Z,99659.66
2023-12-09T21:56:22.804Z,99646.31
2023-12-09T21:58:50.343Z,99654.00
2023-12-09T22:01:20.469Z,99648.97
2023-12-09T22:03:47.916Z,99650.50
2023-12-09T22:06:14.904Z,99641.53
2023-12-09T22:08:42.678Z,99634.25
2023-12-09T22:11:10.319Z,99629.13
2023-12-09T22:13:36.979Z,99627.53
2023-12-09T22:16:04.876Z,99623.16
2023-12-09T22:18:31.719Z,99613.97
2023-12-09T22:21:01.715Z,99607.56
2023-12-09T22:23:28.559Z,99607.63
2023-12-09T22:25:55.472Z,99601.13
2023-12-09T22:28:22.590Z,99603.06
2023-12-09T22:30:49.285Z,99603.88
2023-12-09T22:33:16.006Z,99606.03
2023-12-09T22:35:43.435Z,99605.41
2023-12-09T22:38:10.018Z,99592.91
2023-12-09T22:40:37.481Z,99596.66
2023-12-09T22:43:04.290Z,99589.81
2023-12-09T22:45:30.850Z,99588.28
2023-12-09T22:47:57.662Z,99601.13
2023-12-09T22:50:24.457Z,99596.22
2023-12-09T22:52:51.084Z,99595.25
2023-12-09T22:55:17.711Z,99597.28
2023-12-09T22:57:45.628Z,99606.91
2023-12-09T23:00:18.969Z,99590.84
2023-12-09T23:02:45.511Z,99590.88
2023-12-09T23:05:12.135Z,99587.66
2023-12-09T23:07:38.661Z,99587.44
2023-12-09T23:10:05.901Z,99585.50
2023-12-09T23:12:32.809Z,99572.06
2023-12-09T23:14:59.400Z,99562.63
2023-12-09T23:17:26.001Z,99569.56
2023-12-09T23:19:52.668Z,99560.41
2023-12-09T23:22:19.219Z,99553.47
2023-12-09T23:24:45.821Z,99550.44
2023-12-09T23:27:12.409Z,99549.28
2023-12-09T23:29:39.023Z,99544.91
2023-12-09T23:32:06.668Z,99548.09
2023-12-09T23:34:33.298Z,99556.00
2023-12-09T23:36:59.899Z,99559.66
2023-12-09T23:39:26.545Z,99548.00
2023-12-09T23:41:53.780Z,99548.13
2023-12-09T23:44:22.430Z,99552.78
2023-12-09T23:46:49.008Z,99538.50
2023-12-09T23:49:15.528Z,99539.34
2023-12-09T23:51:42.121Z,99540.31
2023-12-09T23:54:08.677Z,99541.69
2023-12-09T23:56:35.247Z,99541.19
2023-12-09T23:59:01.778Z,99542.97
